Time,TemperatureF,DewpointF,PressureIn,WindDirection,WindDirectionDegrees,WindSpeedMPH,WindSpeedGustMPH,Humidity,HourlyPrecipIn,Conditions,Clouds,dailyrainin,SolarRadiationWatts/m^2,SoftwareType,DateUTC
2016-12-05 00:23:00,52.0,22.0,30.09,WSW,253,9.0,-999.0,31,-99.99,,,-99.99,0.000000,,2016-12-05 08:23:00,
2016-12-05 00:33:00,52.0,22.0,30.09,WSW,253,9.0,-999.0,31,-99.99,,,-99.99,0.000000,,2016-12-05 08:33:00,
2016-12-05 00:55:00,52.0,23.0,30.10,WSW,255,13.0,-999.0,32,-99.99,,,-99.99,0.000000,,2016-12-05 08:55:00,
2016-12-05 01:03:00,52.0,23.0,30.10,WSW,255,13.0,-999.0,32,-99.99,,,-99.99,0.000000,,2016-12-05 09:03:00,
2016-12-05 01:22:00,52.0,23.0,30.10,NW,307,7.0,-999.0,32,-99.99,,,-99.99,0.000000,,2016-12-05 09:22:00,
2016-12-05 01:33:00,52.0,23.0,30.10,NW,307,7.0,-999.0,32,-99.99,,,-99.99,0.000000,,2016-12-05 09:33:00,
2016-12-05 01:54:00,52.0,22.0,30.09,WSW,243,5.0,-999.0,31,-99.99,,,-99.99,0.000000,,2016-12-05 09:54:00,
2016-12-05 02:03:00,52.0,22.0,30.09,WSW,243,5.0,-999.0,31,-99.99,,,-99.99,0.000000,,2016-12-05 10:03:00,
2016-12-05 02:23:00,52.0,22.0,30.09,West,264,6.0,-999.0,31,-99.99,,,-99.99,0.000000,,2016-12-05 10:23:00,
2016-12-05 02:35:00,52.0,22.0,30.09,West,264,6.0,-999.0,31,-99.99,,,-99.99,0.000000,,2016-12-05 10:35:00,
2016-12-05 02:54:00,52.0,22.0,30.09,West,265,1.0,-999.0,31,-99.99,,,-99.99,0.000000,,2016-12-05 10:54:00,
2016-12-05 03:03:00,52.0,22.0,30.09,West,265,1.0,-999.0,31,-99.99,,,-99.99,0.000000,,2016-12-05 11:03:00,
2016-12-05 03:33:00,52.0,22.0,30.08,West,263,9.0,-999.0,31,-99.99,,,-99.99,0.000000,,2016-12-05 11:33:00,
2016-12-05 03:57:00,52.0,22.0,30.08,WSW,254,7.0,-999.0,30,-99.99,,,-99.99,0.000000,,2016-12-05 11:57:00,
2016-12-05 04:03:00,52.0,22.0,30.08,WSW,254,7.0,-999.0,30,-99.99,,,-99.99,0.000000,,2016-12-05 12:03:00,
2016-12-05 04:23:00,52.0,22.0,30.06,WSW,240,9.0,-999.0,31,-99.99,,,-99.99,0.000000,,2016-12-05 12:23:00,
2016-12-05 04:33:00,52.0,22.0,30.06,WSW,240,9.0,-999.0,31,-99.99,,,-99.99,0.000000,,2016-12-05 12:33:00,
2016-12-05 04:55:00,51.0,21.0,30.07,WNW,284,5.0,-999.0,31,-99.99,,,-99.99,0.000000,,2016-12-05 12:55:00,
2016-12-05 05:03:00,51.0,21.0,30.07,WNW,284,5.0,-999.0,31,-99.99,,,-99.99,0.000000,,2016-12-05 13:03:00,
2016-12-05 05:13:00,51.0,21.0,30.07,WNW,284,5.0,-999.0,31,-99.99,,,-99.99,0.000000,,2016-12-05 13:13:00,
2016-12-05 05:23:00,51.0,21.0,30.06,West,279,3.0,-999.0,31,-99.99,,,-99.99,0.000000,,2016-12-05 13:23:00,
2016-12-05 05:33:00,51.0,21.0,30.06,West,279,3.0,-999.0,31,-99.99,,,-99.99,0.000000,,2016-12-05 13:33:00,
2016-12-05 05:56:00,50.0,21.0,30.06,West,279,0.0,-999.0,31,-99.99,,,-99.99,0.000000,,2016-12-05 13:56:00,
2016-12-05 06:02:00,50.0,21.0,30.06,West,279,0.0,-999.0,31,-99.99,,,-99.99,0.000000,,2016-12-05 14:02:00,
2016-12-05 06:23:00,50.0,21.0,30.07,West,279,0.0,-999.0,31,-99.99,,,-99.99,0.000000,,2016-12-05 14:23:00,
2016-12-05 06:33:00,50.0,21.0,30.07,West,279,0.0,-999.0,31,-99.99,,,-99.99,0.000000,,2016-12-05 14:33:00,
2016-12-05 06:56:00,51.0,22.0,30.07,West,278,0.0,-999.0,32,-99.99,,,-99.99,0.000000,,2016-12-05 14:56:00,
2016-12-05 07:03:00,51.0,22.0,30.07,West,278,0.0,-999.0,32,-99.99,,,-99.99,0.000000,,2016-12-05 15:03:00,
2016-12-05 07:23:00,50.0,21.0,30.08,West,277,0.0,-999.0,32,-99.99,,,-99.99,0.000000,,2016-12-05 15:23:00,
2016-12-05 07:33:00,50.0,21.0,30.08,West,277,0.0,-999.0,32,-99.99,,,-99.99,0.000000,,2016-12-05 15:33:00,
2016-12-05 08:02:00,50.0,21.0,30.08,West,279,0.0,-999.0,32,-99.99,,,-99.99,28.000000,,2016-12-05 16:02:00,
2016-12-05 09:23:00,52.0,22.0,30.09,West,277,0.0,-999.0,31,-99.99,,,-99.99,146.000000,,2016-12-05 17:23:00,
2016-12-05 09:33:00,52.0,22.0,30.09,West,277,0.0,-999.0,31,-99.99,,,-99.99,146.000000,,2016-12-05 17:33:00,
2016-12-05 09:57:00,52.0,22.0,30.10,West,279,0.0,-999.0,31,-99.99,,,-99.99,102.000000,,2016-12-05 17:57:00,
2016-12-05 10:03:00,52.0,22.0,30.10,West,279,0.0,-999.0,31,-99.99,,,-99.99,102.000000,,2016-12-05 18:03:00,
2016-12-05 10:23:00,52.0,22.0,30.09,ENE,65,2.0,-999.0,30,-99.99,,,-99.99,155.000000,,2016-12-05 18:23:00,
2016-12-05 10:33:00,52.0,22.0,30.09,ENE,65,2.0,-999.0,30,-99.99,,,-99.99,155.000000,,2016-12-05 18:33:00,
2016-12-05 10:58:00,52.0,21.0,30.09,ENE,68,3.0,-999.0,29,-99.99,,,-99.99,111.000000,,2016-12-05 18:58:00,
2016-12-05 11:23:00,53.0,24.0,30.09,ENE,68,1.0,-999.0,32,-99.99,,,-99.99,118.000000,,2016-12-05 19:23:00,
2016-12-05 11:33:00,53.0,24.0,30.09,ENE,68,1.0,-999.0,32,-99.99,,,-99.99,118.000000,,2016-12-05 19:33:00,
2016-12-05 11:55:00,53.0,28.0,30.08,ENE,57,1.0,-999.0,38,-99.99,,,-99.99,243.000000,,2016-12-05 19:55:00,
2016-12-05 12:03:00,53.0,28.0,30.08,ENE,57,1.0,-999.0,38,-99.99,,,-99.99,243.000000,,2016-12-05 20:03:00,
2016-12-05 12:23:00,54.0,32.0,30.07,ENE,57,0.0,-999.0,43,-99.99,,,-99.99,221.000000,,2016-12-05 20:23:00,
2016-12-05 12:33:00,54.0,32.0,30.07,ENE,57,0.0,-999.0,43,-99.99,,,-99.99,221.000000,,2016-12-05 20:33:00,
2016-12-05 12:50:00,54.0,32.0,30.07,ENE,57,0.0,-999.0,43,-99.99,,,-99.99,221.000000,,2016-12-05 20:50:00,
2016-12-05 13:00:00,53.0,31.0,30.06,NE,46,2.0,-999.0,42,-99.99,,,-99.99,250.000000,,2016-12-05 21:00:00,
2016-12-05 13:23:00,55.0,35.0,30.05,ESE,111,0.0,-999.0,47,-99.99,,,-99.99,149.000000,,2016-12-05 21:23:00,
2016-12-05 13:33:00,55.0,35.0,30.05,ESE,111,0.0,-999.0,47,-99.99,,,-99.99,149.000000,,2016-12-05 21:33:00,
2016-12-05 13:46:00,55.0,35.0,30.05,ESE,111,0.0,-999.0,47,-99.99,,,-99.99,149.000000,,2016-12-05 21:46:00,
2016-12-05 13:53:00,55.0,35.0,30.05,West,277,0.0,-999.0,47,-99.99,,,-99.99,127.000000,,2016-12-05 21:53:00,
2016-12-05 14:03:00,55.0,35.0,30.05,West,277,0.0,-999.0,47,-99.99,,,-99.99,127.000000,,2016-12-05 22:03:00,
2016-12-05 14:12:00,55.0,35.0,30.05,West,277,0.0,-999.0,47,-99.99,,,-99.99,,,2016-12-05 22:12:00,
2016-12-05 14:23:00,53.0,31.0,30.05,SW,232,4.0,-999.0,43,-99.99,,,-99.99,190.000000,,2016-12-05 22:23:00,
2016-12-05 14:33:00,53.0,31.0,30.05,SW,232,4.0,-999.0,43,-99.99,,,-99.99,190.000000,,2016-12-05 22:33:00,
2016-12-05 15:02:00,53.0,33.0,30.05,WSW,252,1.0,-999.0,46,-99.99,,,-99.99,218.000000,,2016-12-05 23:02:00,
2016-12-05 15:12:00,53.0,33.0,30.05,WSW,252,1.0,-999.0,46,-99.99,,,-99.99,218.000000,,2016-12-05 23:12:00,
2016-12-05 15:23:00,53.0,34.0,30.05,WSW,239,3.0,-999.0,48,-99.99,,,-99.99,137.000000,,2016-12-05 23:23:00,
2016-12-05 15:33:00,53.0,34.0,30.05,WSW,239,3.0,-999.0,48,-99.99,,,-99.99,137.000000,,2016-12-05 23:33:00,
2016-12-05 15:44:00,53.0,34.0,30.05,WSW,239,3.0,-999.0,48,-99.99,,,-99.99,137.000000,,2016-12-05 23:44:00,
2016-12-05 15:56:00,52.0,33.0,30.04,WSW,237,3.0,-999.0,48,-99.99,,,-99.99,74.000000,,2016-12-05 23:56:00,
2016-12-05 16:03:00,52.0,33.0,30.04,WSW,237,3.0,-999.0,48,-99.99,,,-99.99,74.000000,,2016-12-06 00:03:00,
2016-12-05 16:13:00,52.0,33.0,30.04,WSW,237,3.0,-999.0,48,-99.99,,,-99.99,74.000000,,2016-12-06 00:13:00,
2016-12-05 16:23:00,52.0,32.0,30.03,SW,214,1.0,-999.0,47,-99.99,,,-99.99,44.000000,,2016-12-06 00:23:00,
2016-12-05 16:33:00,52.0,32.0,30.03,SW,214,1.0,-999.0,47,-99.99,,,-99.99,44.000000,,2016-12-06 00:33:00,
2016-12-05 16:49:00,52.0,32.0,30.03,SW,214,1.0,-999.0,47,-99.99,,,-99.99,44.000000,,2016-12-06 00:49:00,
2016-12-05 16:58:00,52.0,31.0,30.03,SSW,193,0.0,-999.0,45,-99.99,,,-99.99,12.000000,,2016-12-06 00:58:00,